KPMV

Plattsmouth Municipal Airport

Plattsmouth, Nebraska, USA
METAR KPMV 141635Z AUTO 00000KT 10SM CLR M02/M04 A3030 RMK AO2 T10231039
Observed Flight Rules
Dec-14 @ 16:35 UTC (29 minutes ago) Visual Flight Rules
Visibility Clouds
10 miles
  • Clear skies
Temperatures Readings
Current -2°C / 28°F
Dewpoint -4°C / 25°F
Humidity 86%
Altimeter 30.3" Hg
Pressure 1026 hPa
Elevation 367
METAR KPMV 141635Z AUTO 00000KT 10SM CLR M02/M04 A3030 RMK AO2 T10231039
Observed Flight Rules
Dec-14 @ 16:35 UTC
(29 minutes ago)
VFR
Clouds
  • Clear skies
Temperature Dewpoint
-2°C / 28°F -4°C / 25°F
Humidity Altimeter Pressure
86% 30.3" Hg 1026 hPa